aviador You're here:

LFTW Decoded Metar

NIMES in FRANCE
Report Time2018-06-20 17:00:00
UTC Time2018-06-20 17:23:01
Flight Rules vfr VFR
Wind170° at 07 kt
W.Decomp.*RWY 18: 6.9 kt HW 1.3 kt LCW
W.Rank170° ranks 13
Current wind is below 170° avg. (7.8)
Visibility9999 m
Phenomena:N/A
Clouds:N/A
Expected CloudBase > 3,600 ft AGL from Temp-Dew spread
CeilingNone
Temp28°C (ISA +14)
Dew Point19°C (58% RH)
Heat Index29.2°C
QNH1018 hPa
Density Alt2,008 ft
Elevation315 ft
Report Wrong Elevation
Raw Report
METAR LFTW 201700Z AUTO 17007KT 140V210 CAVOK 28/19 Q1018 NOSIG=

Extra information for LFTW:More info

Metar Taf Metar & Taf Last 4 Metars F.Rules Stats Wind Profile Meteogram Temp Stats Airport Information Weather charts Add Link Nearby VenuesMetar ALERT Operation Metar Decoded Social comments